sensor_id;sensor_type;location;lat;lon;timestamp;pressure;altitude;pressure_sealevel;temperature;humidity
21234;BME280;10774;42.178;26.578;2022-12-17T00:01:27;100190.84;;;8.84;100.00
21234;BME280;10774;42.178;26.578;2022-12-17T00:04:11;100183.22;;;8.77;100.00
21234;BME280;10774;42.178;26.578;2022-12-17T00:06:55;100179.31;;;8.67;100.00
21234;BME280;10774;42.178;26.578;2022-12-17T00:09:39;100187.88;;;8.73;100.00
21234;BME280;10774;42.178;26.578;2022-12-17T00:12:23;100180.06;;;8.69;100.00
21234;BME280;10774;42.178;26.578;2022-12-17T00:15:07;100178.19;;;8.71;100.00
21234;BME280;10774;42.178;26.578;2022-12-17T00:17:51;100179.94;;;8.72;100.00
21234;BME280;10774;42.178;26.578;2022-12-17T00:20:35;100185.44;;;8.69;100.00
21234;BME280;10774;42.178;26.578;2022-12-17T00:23:19;100174.38;;;8.92;100.00
21234;BME280;10774;42.178;26.578;2022-12-17T00:26:03;100186.13;;;8.72;100.00
21234;BME280;10774;42.178;26.578;2022-12-17T00:28:47;100158.50;;;8.72;100.00
21234;BME280;10774;42.178;26.578;2022-12-17T00:31:31;100172.38;;;8.96;100.00
21234;BME280;10774;42.178;26.578;2022-12-17T00:34:15;100170.63;;;8.79;100.00
21234;BME280;10774;42.178;26.578;2022-12-17T00:36:59;100193.59;;;8.83;100.00
21234;BME280;10774;42.178;26.578;2022-12-17T00:39:43;100194.25;;;8.71;100.00
21234;BME280;10774;42.178;26.578;2022-12-17T00:42:27;100184.34;;;8.55;100.00
21234;BME280;10774;42.178;26.578;2022-12-17T00:45:11;100197.78;;;8.71;100.00
21234;BME280;10774;42.178;26.578;2022-12-17T00:47:55;100190.25;;;8.95;100.00
21234;BME280;10774;42.178;26.578;2022-12-17T00:50:39;100169.03;;;8.92;100.00
21234;BME280;10774;42.178;26.578;2022-12-17T00:53:23;100192.78;;;8.98;100.00
21234;BME280;10774;42.178;26.578;2022-12-17T00:56:07;100175.78;;;8.99;100.00
21234;BME280;10774;42.178;26.578;2022-12-17T00:58:51;100186.00;;;9.08;100.00
21234;BME280;10774;42.178;26.578;2022-12-17T01:01:35;100182.25;;;9.28;100.00
21234;BME280;10774;42.178;26.578;2022-12-17T01:04:19;100167.88;;;9.13;100.00
21234;BME280;10774;42.178;26.578;2022-12-17T01:07:03;100169.34;;;9.19;100.00
21234;BME280;10774;42.178;26.578;2022-12-17T01:09:47;100166.47;;;9.22;100.00
21234;BME280;10774;42.178;26.578;2022-12-17T01:12:31;100172.91;;;9.35;100.00
21234;BME280;10774;42.178;26.578;2022-12-17T01:15:15;100174.72;;;9.35;100.00
21234;BME280;10774;42.178;26.578;2022-12-17T01:17:58;100172.97;;;9.18;100.00
21234;BME280;10774;42.178;26.578;2022-12-17T01:20:42;100176.78;;;9.30;100.00
21234;BME280;10774;42.178;26.578;2022-12-17T01:23:26;100171.78;;;9.24;100.00
21234;BME280;10774;42.178;26.578;2022-12-17T01:26:10;100143.44;;;9.20;100.00
21234;BME280;10774;42.178;26.578;2022-12-17T01:28:56;100147.22;;;9.15;100.00
21234;BME280;10774;42.178;26.578;2022-12-17T01:31:40;100141.59;;;9.04;100.00
21234;BME280;10774;42.178;26.578;2022-12-17T01:34:24;100140.09;;;8.48;100.00
21234;BME280;10774;42.178;26.578;2022-12-17T01:37:07;100152.38;;;8.52;100.00
21234;BME280;10774;42.178;26.578;2022-12-17T01:39:51;100153.63;;;8.62;100.00
21234;BME280;10774;42.178;26.578;2022-12-17T01:42:41;100139.78;;;8.72;100.00
21234;BME280;10774;42.178;26.578;2022-12-17T01:45:27;100150.31;;;8.75;100.00
21234;BME280;10774;42.178;26.578;2022-12-17T01:48:16;100137.25;;;8.69;100.00
21234;BME280;10774;42.178;26.578;2022-12-17T01:51:01;100139.34;;;8.46;100.00
21234;BME280;10774;42.178;26.578;2022-12-17T01:53:48;100151.31;;;8.39;100.00
21234;BME280;10774;42.178;26.578;2022-12-17T01:56:35;100131.91;;;7.99;100.00
21234;BME280;10774;42.178;26.578;2022-12-17T01:59:46;100130.28;;;7.97;100.00
21234;BME280;10774;42.178;26.578;2022-12-17T02:02:27;100122.31;;;8.30;100.00
21234;BME280;10774;42.178;26.578;2022-12-17T02:05:11;100134.13;;;8.60;100.00
21234;BME280;10774;42.178;26.578;2022-12-17T02:08:07;100133.47;;;8.73;100.00
21234;BME280;10774;42.178;26.578;2022-12-17T02:14:32;100119.31;;;8.01;100.00
21234;BME280;10774;42.178;26.578;2022-12-17T02:17:21;100103.75;;;8.27;100.00
21234;BME280;10774;42.178;26.578;2022-12-17T02:23:15;100120.03;;;8.22;100.00
21234;BME280;10774;42.178;26.578;2022-12-17T02:26:04;100091.00;;;8.32;100.00
21234;BME280;10774;42.178;26.578;2022-12-17T02:28:53;100101.50;;;8.36;100.00
21234;BME280;10774;42.178;26.578;2022-12-17T02:31:40;100096.97;;;8.38;100.00
21234;BME280;10774;42.178;26.578;2022-12-17T02:34:25;100094.19;;;8.23;100.00
21234;BME280;10774;42.178;26.578;2022-12-17T02:37:09;100085.44;;;8.19;100.00
21234;BME280;10774;42.178;26.578;2022-12-17T02:39:53;100071.84;;;8.24;100.00
21234;BME280;10774;42.178;26.578;2022-12-17T02:42:37;100077.19;;;8.06;100.00
21234;BME280;10774;42.178;26.578;2022-12-17T02:45:21;100078.13;;;8.05;100.00
21234;BME280;10774;42.178;26.578;2022-12-17T02:48:06;100082.84;;;7.83;100.00
21234;BME280;10774;42.178;26.578;2022-12-17T02:50:50;100075.78;;;7.99;100.00
21234;BME280;10774;42.178;26.578;2022-12-17T02:53:41;100079.00;;;7.89;100.00
21234;BME280;10774;42.178;26.578;2022-12-17T02:56:25;100092.59;;;8.01;100.00
21234;BME280;10774;42.178;26.578;2022-12-17T02:59:09;100087.56;;;7.95;100.00
21234;BME280;10774;42.178;26.578;2022-12-17T03:01:53;100089.06;;;7.83;100.00
21234;BME280;10774;42.178;26.578;2022-12-17T03:04:37;100070.75;;;7.76;100.00
21234;BME280;10774;42.178;26.578;2022-12-17T03:07:21;100088.47;;;7.59;100.00
21234;BME280;10774;42.178;26.578;2022-12-17T03:10:05;100077.91;;;7.39;100.00
21234;BME280;10774;42.178;26.578;2022-12-17T03:12:49;100058.41;;;7.37;100.00
21234;BME280;10774;42.178;26.578;2022-12-17T03:15:33;100069.69;;;7.44;100.00
21234;BME280;10774;42.178;26.578;2022-12-17T03:18:17;100081.50;;;7.38;100.00
21234;BME280;10774;42.178;26.578;2022-12-17T03:21:01;100070.78;;;7.21;100.00
21234;BME280;10774;42.178;26.578;2022-12-17T03:23:45;100068.88;;;7.59;100.00
21234;BME280;10774;42.178;26.578;2022-12-17T03:26:30;100077.84;;;7.58;100.00
21234;BME280;10774;42.178;26.578;2022-12-17T03:29:14;100080.16;;;7.66;100.00
21234;BME280;10774;42.178;26.578;2022-12-17T03:31:57;100083.47;;;7.88;100.00
21234;BME280;10774;42.178;26.578;2022-12-17T03:34:41;100094.06;;;7.36;100.00
21234;BME280;10774;42.178;26.578;2022-12-17T03:37:25;100077.78;;;7.04;100.00
21234;BME280;10774;42.178;26.578;2022-12-17T03:40:09;100088.13;;;7.48;100.00
21234;BME280;10774;42.178;26.578;2022-12-17T03:42:53;100087.53;;;7.60;100.00
21234;BME280;10774;42.178;26.578;2022-12-17T03:45:51;100068.84;;;7.78;100.00
21234;BME280;10774;42.178;26.578;2022-12-17T03:48:34;100076.38;;;7.70;100.00
21234;BME280;10774;42.178;26.578;2022-12-17T03:51:26;100079.22;;;7.84;100.00
21234;BME280;10774;42.178;26.578;2022-12-17T03:54:10;100077.34;;;7.86;100.00
21234;BME280;10774;42.178;26.578;2022-12-17T03:56:53;100084.03;;;7.95;100.00
21234;BME280;10774;42.178;26.578;2022-12-17T03:59:37;100066.94;;;7.80;100.00
21234;BME280;10774;42.178;26.578;2022-12-17T04:02:21;100084.28;;;8.07;100.00
21234;BME280;10774;42.178;26.578;2022-12-17T04:05:05;100087.16;;;8.55;100.00
21234;BME280;10774;42.178;26.578;2022-12-17T04:07:50;100075.50;;;8.89;100.00
21234;BME280;10774;42.178;26.578;2022-12-17T04:10:34;100078.44;;;9.16;100.00
21234;BME280;10774;42.178;26.578;2022-12-17T04:13:17;100092.94;;;9.43;100.00
21234;BME280;10774;42.178;26.578;2022-12-17T04:16:01;100075.94;;;9.60;100.00
21234;BME280;10774;42.178;26.578;2022-12-17T04:18:45;100082.16;;;9.91;100.00
21234;BME280;10774;42.178;26.578;2022-12-17T04:21:29;100096.59;;;10.34;100.00
21234;BME280;10774;42.178;26.578;2022-12-17T04:24:13;100099.97;;;10.52;100.00
21234;BME280;10774;42.178;26.578;2022-12-17T04:26:57;100097.31;;;10.66;100.00
21234;BME280;10774;42.178;26.578;2022-12-17T04:29:41;100106.50;;;10.91;100.00
21234;BME280;10774;42.178;26.578;2022-12-17T04:32:25;100105.94;;;11.14;100.00
21234;BME280;10774;42.178;26.578;2022-12-17T04:35:09;100104.56;;;11.36;100.00
21234;BME280;10774;42.178;26.578;2022-12-17T04:37:53;100123.13;;;11.53;100.00
21234;BME280;10774;42.178;26.578;2022-12-17T04:40:37;100129.78;;;11.74;100.00
21234;BME280;10774;42.178;26.578;2022-12-17T04:43:20;100128.06;;;11.88;100.00
21234;BME280;10774;42.178;26.578;2022-12-17T04:46:04;100122.13;;;11.83;100.00
21234;BME280;10774;42.178;26.578;2022-12-17T04:48:48;100133.59;;;11.99;100.00
21234;BME280;10774;42.178;26.578;2022-12-17T04:51:32;100112.72;;;12.02;100.00
21234;BME280;10774;42.178;26.578;2022-12-17T04:54:16;100122.59;;;12.02;100.00
21234;BME280;10774;42.178;26.578;2022-12-17T04:57:00;100122.72;;;12.00;100.00
21234;BME280;10774;42.178;26.578;2022-12-17T04:59:44;100117.69;;;12.09;100.00
21234;BME280;10774;42.178;26.578;2022-12-17T05:02:28;100122.22;;;12.08;100.00
21234;BME280;10774;42.178;26.578;2022-12-17T05:05:11;100105.81;;;11.98;100.00
21234;BME280;10774;42.178;26.578;2022-12-17T05:07:56;100121.44;;;12.06;100.00
21234;BME280;10774;42.178;26.578;2022-12-17T05:10:41;100120.56;;;12.06;100.00
21234;BME280;10774;42.178;26.578;2022-12-17T05:13:25;100097.63;;;11.87;100.00
21234;BME280;10774;42.178;26.578;2022-12-17T05:16:09;100101.06;;;11.89;100.00
21234;BME280;10774;42.178;26.578;2022-12-17T05:18:53;100102.28;;;11.98;100.00
21234;BME280;10774;42.178;26.578;2022-12-17T05:21:37;100104.75;;;12.01;100.00
21234;BME280;10774;42.178;26.578;2022-12-17T05:24:21;100110.13;;;12.01;100.00
21234;BME280;10774;42.178;26.578;2022-12-17T05:27:05;100107.00;;;12.07;100.00
21234;BME280;10774;42.178;26.578;2022-12-17T05:29:49;100089.75;;;11.84;100.00
21234;BME280;10774;42.178;26.578;2022-12-17T05:32:33;100095.06;;;11.98;100.00
21234;BME280;10774;42.178;26.578;2022-12-17T05:35:17;100113.72;;;12.14;100.00
21234;BME280;10774;42.178;26.578;2022-12-17T05:38:02;100103.38;;;12.08;100.00
21234;BME280;10774;42.178;26.578;2022-12-17T05:40:47;100118.13;;;12.15;100.00
21234;BME280;10774;42.178;26.578;2022-12-17T05:43:31;100112.69;;;12.29;100.00
21234;BME280;10774;42.178;26.578;2022-12-17T05:46:15;100126.56;;;12.49;100.00
21234;BME280;10774;42.178;26.578;2022-12-17T05:48:59;100117.75;;;12.60;100.00
21234;BME280;10774;42.178;26.578;2022-12-17T05:51:42;100125.53;;;12.77;100.00
21234;BME280;10774;42.178;26.578;2022-12-17T05:54:26;100118.19;;;12.79;100.00
21234;BME280;10774;42.178;26.578;2022-12-17T05:57:10;100115.38;;;12.80;100.00
21234;BME280;10774;42.178;26.578;2022-12-17T05:59:54;100111.97;;;12.78;100.00
21234;BME280;10774;42.178;26.578;2022-12-17T06:02:38;100101.38;;;12.75;100.00
21234;BME280;10774;42.178;26.578;2022-12-17T06:05:22;100105.38;;;12.82;100.00
21234;BME280;10774;42.178;26.578;2022-12-17T06:08:07;100115.81;;;13.00;100.00
21234;BME280;10774;42.178;26.578;2022-12-17T06:10:52;100109.13;;;13.05;100.00
21234;BME280;10774;42.178;26.578;2022-12-17T06:13:36;100096.50;;;13.06;100.00
21234;BME280;10774;42.178;26.578;2022-12-17T06:16:20;100107.63;;;13.14;100.00
21234;BME280;10774;42.178;26.578;2022-12-17T06:19:04;100099.63;;;13.13;100.00
21234;BME280;10774;42.178;26.578;2022-12-17T06:21:49;100102.56;;;13.22;100.00
21234;BME280;10774;42.178;26.578;2022-12-17T06:24:33;100102.22;;;13.27;100.00
21234;BME280;10774;42.178;26.578;2022-12-17T06:27:17;100100.47;;;13.39;100.00
21234;BME280;10774;42.178;26.578;2022-12-17T06:30:01;100108.66;;;13.50;100.00
21234;BME280;10774;42.178;26.578;2022-12-17T06:32:45;100106.75;;;13.63;100.00
21234;BME280;10774;42.178;26.578;2022-12-17T06:35:29;100110.97;;;13.67;100.00
21234;BME280;10774;42.178;26.578;2022-12-17T06:38:13;100105.22;;;13.72;100.00
21234;BME280;10774;42.178;26.578;2022-12-17T06:40:59;100111.41;;;13.85;100.00
21234;BME280;10774;42.178;26.578;2022-12-17T06:43:44;100117.44;;;13.89;100.00
21234;BME280;10774;42.178;26.578;2022-12-17T06:46:28;100126.31;;;14.02;100.00
21234;BME280;10774;42.178;26.578;2022-12-17T06:49:12;100124.84;;;13.98;100.00
21234;BME280;10774;42.178;26.578;2022-12-17T06:51:56;100153.88;;;14.18;100.00
21234;BME280;10774;42.178;26.578;2022-12-17T06:54:40;100134.72;;;14.10;100.00
21234;BME280;10774;42.178;26.578;2022-12-17T06:57:24;100157.72;;;14.27;100.00
21234;BME280;10774;42.178;26.578;2022-12-17T07:00:08;100162.44;;;14.36;100.00
21234;BME280;10774;42.178;26.578;2022-12-17T07:02:56;100159.56;;;14.26;100.00
21234;BME280;10774;42.178;26.578;2022-12-17T07:05:40;100150.78;;;14.35;100.00
21234;BME280;10774;42.178;26.578;2022-12-17T07:08:24;100164.09;;;14.50;100.00
21234;BME280;10774;42.178;26.578;2022-12-17T07:11:08;100161.06;;;14.54;100.00
21234;BME280;10774;42.178;26.578;2022-12-17T07:13:52;100148.69;;;14.63;100.00
21234;BME280;10774;42.178;26.578;2022-12-17T07:16:36;100153.59;;;14.69;100.00
21234;BME280;10774;42.178;26.578;2022-12-17T07:19:20;100152.13;;;14.65;100.00
21234;BME280;10774;42.178;26.578;2022-12-17T07:22:04;100146.25;;;14.71;100.00
21234;BME280;10774;42.178;26.578;2022-12-17T07:24:47;100159.53;;;14.85;100.00
21234;BME280;10774;42.178;26.578;2022-12-17T07:27:31;100146.66;;;14.89;100.00
21234;BME280;10774;42.178;26.578;2022-12-17T07:30:15;100145.53;;;14.91;100.00
21234;BME280;10774;42.178;26.578;2022-12-17T07:33:04;100150.97;;;15.03;100.00
21234;BME280;10774;42.178;26.578;2022-12-17T07:35:48;100158.84;;;15.17;100.00
21234;BME280;10774;42.178;26.578;2022-12-17T07:38:32;100147.78;;;15.20;100.00
21234;BME280;10774;42.178;26.578;2022-12-17T07:41:16;100154.19;;;15.30;100.00
21234;BME280;10774;42.178;26.578;2022-12-17T07:44:00;100160.06;;;15.35;100.00
21234;BME280;10774;42.178;26.578;2022-12-17T07:46:44;100160.56;;;15.40;100.00
21234;BME280;10774;42.178;26.578;2022-12-17T07:49:28;100146.28;;;15.38;100.00
21234;BME280;10774;42.178;26.578;2022-12-17T07:52:12;100152.94;;;15.46;100.00
21234;BME280;10774;42.178;26.578;2022-12-17T07:54:56;100157.34;;;15.58;100.00
21234;BME280;10774;42.178;26.578;2022-12-17T07:57:40;100154.94;;;15.66;100.00
21234;BME280;10774;42.178;26.578;2022-12-17T08:00:24;100148.09;;;15.60;100.00
21234;BME280;10774;42.178;26.578;2022-12-17T08:03:08;100153.41;;;15.62;100.00
21234;BME280;10774;42.178;26.578;2022-12-17T08:05:52;100158.09;;;15.71;100.00
21234;BME280;10774;42.178;26.578;2022-12-17T08:08:39;100155.75;;;15.78;100.00
21234;BME280;10774;42.178;26.578;2022-12-17T08:11:23;100140.09;;;15.81;100.00
21234;BME280;10774;42.178;26.578;2022-12-17T08:14:07;100155.84;;;15.99;100.00
21234;BME280;10774;42.178;26.578;2022-12-17T08:16:59;100141.31;;;16.00;100.00
21234;BME280;10774;42.178;26.578;2022-12-17T08:19:43;100130.09;;;16.04;100.00
21234;BME280;10774;42.178;26.578;2022-12-17T08:22:27;100139.75;;;16.18;100.00
21234;BME280;10774;42.178;26.578;2022-12-17T08:25:11;100113.66;;;16.17;100.00
21234;BME280;10774;42.178;26.578;2022-12-17T08:27:58;100118.53;;;16.23;100.00
21234;BME280;10774;42.178;26.578;2022-12-17T08:30:46;100101.91;;;16.28;100.00
21234;BME280;10774;42.178;26.578;2022-12-17T08:33:30;100108.41;;;16.36;100.00
21234;BME280;10774;42.178;26.578;2022-12-17T08:36:14;100090.22;;;16.27;100.00
21234;BME280;10774;42.178;26.578;2022-12-17T08:38:58;100083.09;;;16.26;100.00
21234;BME280;10774;42.178;26.578;2022-12-17T08:41:42;100093.25;;;16.34;100.00
21234;BME280;10774;42.178;26.578;2022-12-17T08:44:26;100098.28;;;16.38;100.00
21234;BME280;10774;42.178;26.578;2022-12-17T08:47:10;100099.50;;;16.45;100.00
21234;BME280;10774;42.178;26.578;2022-12-17T08:49:54;100098.09;;;16.51;100.00
21234;BME280;10774;42.178;26.578;2022-12-17T08:52:38;100076.47;;;16.61;100.00
21234;BME280;10774;42.178;26.578;2022-12-17T08:55:22;100085.50;;;16.82;100.00
21234;BME280;10774;42.178;26.578;2022-12-17T08:58:07;100063.66;;;16.84;100.00
21234;BME280;10774;42.178;26.578;2022-12-17T09:00:51;100080.13;;;17.02;100.00
21234;BME280;10774;42.178;26.578;2022-12-17T09:03:34;100080.22;;;17.21;100.00
21234;BME280;10774;42.178;26.578;2022-12-17T09:06:18;100078.22;;;17.23;100.00
21234;BME280;10774;42.178;26.578;2022-12-17T09:09:02;100071.94;;;17.22;100.00
21234;BME280;10774;42.178;26.578;2022-12-17T09:11:46;100074.53;;;17.34;100.00
21234;BME280;10774;42.178;26.578;2022-12-17T09:14:30;100083.28;;;17.37;100.00
21234;BME280;10774;42.178;26.578;2022-12-17T09:17:14;100070.00;;;17.44;100.00
21234;BME280;10774;42.178;26.578;2022-12-17T09:19:58;100086.06;;;17.57;100.00
21234;BME280;10774;42.178;26.578;2022-12-17T09:22:42;100093.78;;;17.61;100.00
21234;BME280;10774;42.178;26.578;2022-12-17T09:25:26;100061.75;;;17.45;100.00
21234;BME280;10774;42.178;26.578;2022-12-17T09:28:10;100078.00;;;17.36;100.00
21234;BME280;10774;42.178;26.578;2022-12-17T09:30:58;100083.47;;;17.45;100.00
21234;BME280;10774;42.178;26.578;2022-12-17T09:33:42;100092.16;;;17.49;100.00
21234;BME280;10774;42.178;26.578;2022-12-17T09:36:27;100119.31;;;17.59;100.00
21234;BME280;10774;42.178;26.578;2022-12-17T09:39:12;100123.19;;;17.66;100.00
21234;BME280;10774;42.178;26.578;2022-12-17T09:44:53;100104.13;;;17.77;100.00
21234;BME280;10774;42.178;26.578;2022-12-17T09:50:31;100099.00;;;17.93;100.00
21234;BME280;10774;42.178;26.578;2022-12-17T09:53:27;100102.72;;;18.02;100.00
21234;BME280;10774;42.178;26.578;2022-12-17T09:56:17;100093.00;;;17.99;100.00
21234;BME280;10774;42.178;26.578;2022-12-17T09:59:03;100077.72;;;17.98;100.00
21234;BME280;10774;42.178;26.578;2022-12-17T10:01:47;100075.69;;;18.00;100.00
21234;BME280;10774;42.178;26.578;2022-12-17T10:04:41;100080.56;;;18.07;100.00
21234;BME280;10774;42.178;26.578;2022-12-17T10:07:33;100062.38;;;18.07;100.00
21234;BME280;10774;42.178;26.578;2022-12-17T10:10:21;100081.84;;;18.22;100.00
21234;BME280;10774;42.178;26.578;2022-12-17T10:13:22;100079.81;;;18.24;100.00
21234;BME280;10774;42.178;26.578;2022-12-17T10:16:27;100082.69;;;18.32;100.00
21234;BME280;10774;42.178;26.578;2022-12-17T10:19:18;100064.41;;;18.24;100.00
21234;BME280;10774;42.178;26.578;2022-12-17T10:22:08;100066.13;;;18.35;100.00
21234;BME280;10774;42.178;26.578;2022-12-17T10:24:53;100065.22;;;18.35;100.00
21234;BME280;10774;42.178;26.578;2022-12-17T10:27:37;100051.78;;;18.33;100.00
21234;BME280;10774;42.178;26.578;2022-12-17T10:30:21;100069.09;;;18.32;100.00
21234;BME280;10774;42.178;26.578;2022-12-17T10:33:06;100055.25;;;18.35;100.00
21234;BME280;10774;42.178;26.578;2022-12-17T10:35:50;100044.06;;;18.38;100.00
21234;BME280;10774;42.178;26.578;2022-12-17T10:38:34;100042.06;;;18.40;100.00
21234;BME280;10774;42.178;26.578;2022-12-17T10:44:26;100052.47;;;18.45;100.00
21234;BME280;10774;42.178;26.578;2022-12-17T10:47:15;100037.59;;;18.49;100.00
21234;BME280;10774;42.178;26.578;2022-12-17T10:50:10;100033.16;;;18.58;100.00
21234;BME280;10774;42.178;26.578;2022-12-17T10:52:55;100041.41;;;18.66;100.00
21234;BME280;10774;42.178;26.578;2022-12-17T10:55:54;100013.13;;;18.59;100.00
21234;BME280;10774;42.178;26.578;2022-12-17T10:58:46;100024.25;;;18.75;100.00
21234;BME280;10774;42.178;26.578;2022-12-17T11:01:32;100025.34;;;18.82;100.00
21234;BME280;10774;42.178;26.578;2022-12-17T11:07:33;100034.50;;;18.91;100.00
21234;BME280;10774;42.178;26.578;2022-12-17T11:10:21;100032.47;;;18.93;100.00
21234;BME280;10774;42.178;26.578;2022-12-17T11:13:30;100043.88;;;19.06;100.00
21234;BME280;10774;42.178;26.578;2022-12-17T11:22:26;100025.19;;;19.21;100.00
21234;BME280;10774;42.178;26.578;2022-12-17T11:28:23;100036.69;;;19.42;100.00
21234;BME280;10774;42.178;26.578;2022-12-17T11:37:35;100024.13;;;19.95;99.63
21234;BME280;10774;42.178;26.578;2022-12-17T11:40:43;100028.53;;;20.14;97.36
21234;BME280;10774;42.178;26.578;2022-12-17T11:44:23;100032.28;;;20.13;95.36
21234;BME280;10774;42.178;26.578;2022-12-17T11:53:44;100013.31;;;19.85;98.06
21234;BME280;10774;42.178;26.578;2022-12-17T11:56:40;99992.16;;;19.79;98.54
21234;BME280;10774;42.178;26.578;2022-12-17T11:59:32;99991.81;;;19.82;96.84
21234;BME280;10774;42.178;26.578;2022-12-17T12:08:25;99994.59;;;19.54;99.63
21234;BME280;10774;42.178;26.578;2022-12-17T12:20:05;100036.03;;;19.76;96.28
21234;BME280;10774;42.178;26.578;2022-12-17T12:26:20;100021.09;;;20.16;94.50
21234;BME280;10774;42.178;26.578;2022-12-17T12:29:30;100033.13;;;20.31;91.52
21234;BME280;10774;42.178;26.578;2022-12-17T12:32:39;100017.38;;;20.43;91.62
21234;BME280;10774;42.178;26.578;2022-12-17T12:35:28;100017.94;;;20.46;93.12
21234;BME280;10774;42.178;26.578;2022-12-17T12:38:31;100035.09;;;20.65;93.82
21234;BME280;10774;42.178;26.578;2022-12-17T12:50:49;100042.66;;;21.39;88.17
21234;BME280;10774;42.178;26.578;2022-12-17T12:53:37;100059.75;;;21.49;87.75
21234;BME280;10774;42.178;26.578;2022-12-17T12:56:47;100053.63;;;21.55;85.04
21234;BME280;10774;42.178;26.578;2022-12-17T12:59:35;100047.81;;;21.50;85.93
21234;BME280;10774;42.178;26.578;2022-12-17T13:05:20;100038.75;;;21.07;87.30
21234;BME280;10774;42.178;26.578;2022-12-17T13:10:29;100043.94;;;20.58;88.92
21234;BME280;10774;42.178;26.578;2022-12-17T13:12:55;100071.19;;;20.58;90.96
21234;BME280;10774;42.178;26.578;2022-12-17T13:15:35;100070.63;;;20.47;92.78
21234;BME280;10774;42.178;26.578;2022-12-17T13:18:36;100069.66;;;20.38;92.98
21234;BME280;10774;42.178;26.578;2022-12-17T13:21:20;100075.53;;;20.25;93.19
21234;BME280;10774;42.178;26.578;2022-12-17T13:23:47;100055.13;;;19.94;94.21
21234;BME280;10774;42.178;26.578;2022-12-17T13:29:22;100088.06;;;20.00;93.81
21234;BME280;10774;42.178;26.578;2022-12-17T13:32:01;100078.41;;;20.06;93.78
21234;BME280;10774;42.178;26.578;2022-12-17T13:42:51;100088.84;;;20.10;93.21
21234;BME280;10774;42.178;26.578;2022-12-17T13:45:21;100098.31;;;20.06;93.73
21234;BME280;10774;42.178;26.578;2022-12-17T13:47:57;100103.78;;;19.89;95.54
21234;BME280;10774;42.178;26.578;2022-12-17T13:50:25;100107.97;;;19.83;95.75
21234;BME280;10774;42.178;26.578;2022-12-17T13:52:52;100113.59;;;19.72;97.21
21234;BME280;10774;42.178;26.578;2022-12-17T13:55:20;100106.66;;;19.59;97.51
21234;BME280;10774;42.178;26.578;2022-12-17T13:57:48;100110.47;;;19.39;99.67
21234;BME280;10774;42.178;26.578;2022-12-17T14:00:28;100098.88;;;19.37;99.34
21234;BME280;10774;42.178;26.578;2022-12-17T14:02:54;100108.19;;;19.34;99.83
21234;BME280;10774;42.178;26.578;2022-12-17T14:05:42;100124.59;;;19.52;98.94
21234;BME280;10774;42.178;26.578;2022-12-17T14:08:16;100126.06;;;19.47;99.04
21234;BME280;10774;42.178;26.578;2022-12-17T14:10:50;100126.72;;;18.84;100.00
21234;BME280;10774;42.178;26.578;2022-12-17T14:13:16;100146.75;;;18.64;100.00
21234;BME280;10774;42.178;26.578;2022-12-17T14:15:49;100110.44;;;18.16;100.00
21234;BME280;10774;42.178;26.578;2022-12-17T14:18:18;100124.09;;;17.76;100.00
21234;BME280;10774;42.178;26.578;2022-12-17T14:20:45;100137.31;;;17.60;100.00
21234;BME280;10774;42.178;26.578;2022-12-17T14:25:43;100137.22;;;17.00;100.00
21234;BME280;10774;42.178;26.578;2022-12-17T14:28:22;100154.47;;;17.20;100.00
21234;BME280;10774;42.178;26.578;2022-12-17T14:30:48;100145.81;;;17.05;100.00
21234;BME280;10774;42.178;26.578;2022-12-17T14:33:30;100156.72;;;17.15;100.00
21234;BME280;10774;42.178;26.578;2022-12-17T14:35:58;100136.63;;;16.96;100.00
21234;BME280;10774;42.178;26.578;2022-12-17T14:38:25;100153.06;;;16.74;100.00
21234;BME280;10774;42.178;26.578;2022-12-17T14:40:51;100165.47;;;16.77;100.00
21234;BME280;10774;42.178;26.578;2022-12-17T14:43:22;100154.19;;;16.60;100.00
21234;BME280;10774;42.178;26.578;2022-12-17T14:45:57;100164.66;;;16.65;100.00
21234;BME280;10774;42.178;26.578;2022-12-17T14:48:42;100156.75;;;16.73;100.00
21234;BME280;10774;42.178;26.578;2022-12-17T14:51:36;100144.09;;;16.62;100.00
21234;BME280;10774;42.178;26.578;2022-12-17T14:56:31;100172.25;;;16.82;100.00
21234;BME280;10774;42.178;26.578;2022-12-17T14:58:57;100166.06;;;16.80;100.00
21234;BME280;10774;42.178;26.578;2022-12-17T15:01:23;100176.50;;;16.64;100.00
21234;BME280;10774;42.178;26.578;2022-12-17T15:03:48;100178.94;;;16.67;100.00
21234;BME280;10774;42.178;26.578;2022-12-17T15:06:16;100175.78;;;16.62;100.00
21234;BME280;10774;42.178;26.578;2022-12-17T15:08:47;100167.41;;;16.54;100.00
21234;BME280;10774;42.178;26.578;2022-12-17T15:11:16;100158.50;;;16.42;100.00
21234;BME280;10774;42.178;26.578;2022-12-17T15:13:42;100159.34;;;16.42;100.00
21234;BME280;10774;42.178;26.578;2022-12-17T15:16:08;100152.75;;;16.35;100.00
21234;BME280;10774;42.178;26.578;2022-12-17T15:18:35;100159.88;;;16.36;100.00
21234;BME280;10774;42.178;26.578;2022-12-17T15:21:01;100161.25;;;16.31;100.00
21234;BME280;10774;42.178;26.578;2022-12-17T15:23:26;100162.34;;;16.28;100.00
21234;BME280;10774;42.178;26.578;2022-12-17T15:25:52;100163.63;;;16.24;100.00
21234;BME280;10774;42.178;26.578;2022-12-17T15:28:19;100161.75;;;15.92;100.00
21234;BME280;10774;42.178;26.578;2022-12-17T15:30:45;100175.03;;;15.95;100.00